Historyczne dane pomiarowe

Dodano dane terminowe – wersja testowa.

Dane z okresu 1951-2019

Wersja bazy: 1.34 [2019-03-16, lista zmian], aktualizacja planowana na 2019-04-15

Dane meteo z obszaru Polski uzyskane na podstawie danych udostępnionych przez Instytut Meteorologii i Gospodarki Wodnej – Państwowy Instytut Badawczy.

 

Wybierz Datę:    

       

TemperaturaWilgotnośćWiatrCiśnienieOpadyŚniegCzas trwania zjawisk
 Stacja t tx tn tng RH VA  wxwx mslp ppp RRR   cm mm wxwxwxwxwxwxwx
1999-08-14 13.9 18.6 8.3 5.0 87.3- 6.7 3.7---- 0.4------------
1999-08-13 16.6 21.8 11.9 9.9 77.0- 4.7 3.0---- 0.2------------
1999-08-12 17.4 21.8 13.9 12.0 76.0- 5.3 4.0---- 0.0------------
1999-08-11 19.6 25.4 15.4 15.0 83.3- 6.7 3.3---- 0.0------------
1999-08-10 21.7 28.7 13.8 11.1 79.0- 4.3 2.7---- 50.7------------
1999-08-09 22.3 30.6 13.9 12.2 80.0- 3.7 3.0---- 5.6------------
1999-08-08 20.2 28.7 12.8 15.1 83.0- 5.7 3.0---- 10.2------------
1999-08-07 19.8 28.5 9.8 7.0 78.5- 1.0 2.3---- 0.0------------
1999-08-06 19.1 26.5 11.0 7.6 82.5- 6.7 2.3---- 0.0------------
1999-08-05 17.9 26.7 8.7 5.0 80.5- 4.3 2.3---- 0.0------------
1999-08-04 17.2 24.3 9.1 6.0 84.0- 5.0 2.0---- 0.0------------
1999-08-03 17.3 25.3 10.1 5.5 74.0- 4.3 2.3---- 0.0------------
1999-08-02 17.8 25.2 8.1 4.7 66.8- 4.7 3.0---- 0.0------------
1999-08-01 18.0 25.1 10.5 7.4 69.3- 5.3 3.0---- 0.0------------
1999-07-31 18.4 25.8 8.5 4.4 60.8- 2.3 4.3---- 0.0------------
1999-07-30 18.0 24.8 9.5 5.5 67.5- 1.3 3.3---- 0.0------------
1999-07-29 17.6 23.7 10.4 8.5 71.3- 3.0 3.3---- 0.0------------
1999-07-28 17.0 20.7 13.4 9.7 95.8- 7.0 2.0---- 26.2------------
1999-07-27 18.9 25.2 14.4 14.2 86.8- 7.0 4.0---- 17.5------------
1999-07-26 20.5 27.8 9.8 6.5 71.0- 4.3 2.3---- 0.0------------
1999-07-25 18.6 25.7 9.9 6.6 80.3- 4.0 2.3---- 0.0------------
1999-07-24 18.2 23.7 12.3 9.0 81.8- 3.3 2.3---- 0.0------------
1999-07-23 15.8 20.7 10.1 7.0 87.3- 7.3 2.3---- 6.2------------
1999-07-22 20.2 26.0 14.9 11.5 74.3- 5.3 3.3---- 0.0------------
1999-07-21 22.0 29.3 12.3 9.1 67.8- 4.0 4.0---- 1.2------------
1999-07-20 20.6 27.6 12.4 8.6 74.3- 2.3 2.3---- 0.0------------
1999-07-19 19.7 27.3 11.9 8.7 85.0- 5.3 2.7---- 2.2------------
1999-07-18 16.8 25.3 7.7 6.0 81.0- 4.7 2.7---- 1.0------------
1999-07-17 16.9 23.6 7.6 4.0 79.0- 2.7 2.7---- 0.0------------
1999-07-16 16.2 21.8 9.5 6.0 73.5- 3.0 3.0---- 0.0------------
1999-07-15 16.4 20.3 12.9 13.9 91.8- 6.3 3.3---- 3.2------------
1999-07-14 21.6 27.6 16.6 15.0 80.5- 5.7 3.0---- 12.9------------
1999-07-13 22.4 29.2 15.9 11.9 59.5- 4.7 4.0---- 0.0------------
1999-07-12 21.8 28.3 13.9 9.0 61.5- 4.3 3.7---- 0.0------------
1999-07-11 21.1 27.1 13.3 8.1 58.3- 0.3 3.7---- 0.0------------
1999-07-10 19.6 24.7 13.8 10.1 62.5- 0.0 6.0---- 0.0------------
1999-07-09 20.3 25.3 16.0 16.5 88.0- 6.7 5.0---- 0.0------------
1999-07-08 20.5 24.8 15.9 13.4 88.0- 7.7 5.0---- 30.0------------
1999-07-07 23.5 28.3 19.3 15.0 78.0- 5.0 3.7---- 0.0------------
1999-07-06 25.4 31.6 17.5 13.1 68.0- 3.7 2.7---- 0.0------------
1999-07-05 25.1 31.3 17.0 13.0 64.5- 3.3 2.7---- 0.0------------
1999-07-04 22.4 29.0 12.9 9.6 70.5- 4.7 3.0---- 0.0------------
1999-07-03 20.0 25.8 11.9 9.1 74.0- 4.7 2.3---- 0.0------------
1999-07-02 20.7 25.8 16.3 16.2 84.0- 5.3 3.0---- 0.0------------
1999-07-01 19.8 26.6 11.0 9.0 73.3- 5.0 2.3---- 4.0------------
1999-06-30 18.6 24.7 10.9 7.5 72.3- 3.0 2.3---- 0.0------------
1999-06-29 19.9 24.8 13.6 11.1 79.3- 3.0 4.3---- 0.0------------
1999-06-28 20.7 29.3 9.0 6.9 73.5- 3.0 2.7---- 0.0------------
1999-06-27 18.4 24.8 8.9 5.4 65.5- 0.0 3.0---- 0.0------------
1999-06-26 14.9 23.1 5.8 2.5 81.8- 3.7 2.7---- 0.0------------
1999-06-25 13.3 17.1 10.4 10.6 92.8- 6.0 3.7---- 1.4------------
1999-06-24 11.8 13.5 10.1 10.7 96.0- 8.0 3.7---- 6.0------------
1999-06-23 13.9 18.2 10.5 12.0 97.3- 8.0 4.3---- 14.7------------
1999-06-22 18.9 23.7 14.8 14.1 92.8- 7.0 5.0---- 11.0------------
1999-06-21 19.9 23.8 15.4 12.6 91.8- 7.7 2.3---- 2.6------------
1999-06-20 20.7 25.8 14.0 12.0 83.5- 6.0 2.3---- 0.0------------
1999-06-19 21.0 28.7 14.8 12.5 90.0- 5.0 2.3---- 2.3------------
1999-06-18 19.8 25.8 15.5 14.4 93.8- 6.0 3.3---- 0.0------------
1999-06-17 19.5 25.2 15.4 13.4 93.8- 7.3 2.3---- 63.3------------
1999-06-16 19.5 25.8 13.6 11.5 90.5- 5.3 3.3---- 3.0------------
379.5 ms

 

Źródłem pochodzenia danych jest Instytut Meteorologii i Gospodarki Wodnej – Państwowy Instytut Badawczy. Dane Instytutu Meteorologii i Gospodarki Wodnej – Państwowego Instytutu Badawczego zostały przetworzone.

Dane źródłowe można odnaleźć na stronie https://dane.imgw.pl